Time;durP1;ratioP1;P1;durP2;ratioP2;P2;SDS_P1;SDS_P2;PMS_P1;PMS_P2;Temp;Humidity;BMP_temperature;BMP_pressure;BME280_temperature;BME280_humidity;BME280_pressure;Samples;Min_cycle;Max_cycle;Signal;HPM_P1;HPM_P2
2023/09/12 00:01:06;;;;;;;15.00;11.27;;;;;21.50;100827.00;;;;4914993;29;20368;-73
2023/09/12 00:03:53;;;;;;;14.30;10.83;;;;;21.50;100828.00;;;;4920330;29;20652;-75
2023/09/12 00:06:40;;;;;;;18.00;11.40;;;;;21.50;100829.00;;;;4925258;29;20313;-76
2023/09/12 00:09:27;;;;;;;15.17;11.97;;;;;21.50;100821.00;;;;4916739;29;20244;-76
2023/09/12 00:12:15;;;;;;;16.37;11.73;;;;;21.50;100827.00;;;;4916943;29;20244;-75
2023/09/12 00:15:04;;;;;;;16.50;11.60;;;;;21.40;100825.00;;;;4919367;29;20237;-74
2023/09/12 00:17:50;;;;;;;14.23;10.70;;;;;21.40;100809.00;;;;4925211;28;20237;-74
2023/09/12 00:20:38;;;;;;;16.47;11.53;;;;;21.30;100809.00;;;;4912299;29;20241;-74
2023/09/12 00:23:24;;;;;;;16.40;12.70;;;;;21.30;100808.00;;;;4926123;29;20262;-74
2023/09/12 00:26:11;;;;;;;19.43;12.33;;;;;21.20;100800.00;;;;4920727;29;20365;-74
2023/09/12 00:28:57;;;;;;;20.53;12.90;;;;;21.30;100797.00;;;;4919123;29;20280;-75
2023/09/12 00:31:43;;;;;;;19.80;13.03;;;;;21.30;100783.00;;;;4923631;29;20244;-75
2023/09/12 00:34:30;;;;;;;18.57;12.23;;;;;21.30;100772.00;;;;4923748;29;20319;-73
2023/09/12 00:37:17;;;;;;;18.93;13.23;;;;;21.30;100781.00;;;;4917278;28;20329;-74
2023/09/12 00:40:05;;;;;;;19.73;13.97;;;;;21.30;100802.00;;;;4917120;28;20236;-75
2023/09/12 00:42:51;;;;;;;22.47;13.60;;;;;21.30;100807.00;;;;4910053;28;20809;-73
2023/09/12 00:45:38;;;;;;;23.73;13.87;;;;;21.30;100820.00;;;;4924219;29;20239;-73
2023/09/12 00:48:25;;;;;;;20.60;14.87;;;;;21.40;100817.00;;;;4920622;29;20251;-75
2023/09/12 00:51:11;;;;;;;21.90;14.47;;;;;21.40;100854.00;;;;4916523;28;20240;-76
2023/09/12 00:53:59;;;;;;;20.90;14.60;;;;;21.40;100890.00;;;;4927225;29;20240;-75
2023/09/12 00:56:46;;;;;;;24.83;14.40;;;;;21.40;100918.00;;;;4919419;28;20605;-75
2023/09/12 00:59:32;;;;;;;28.10;19.83;;;;;21.40;100909.00;;;;4919120;29;20255;-76
2023/09/12 01:02:19;;;;;;;32.10;18.80;;;;;21.50;100855.00;;;;4926299;29;20340;-75
2023/09/12 01:05:08;;;;;;;31.17;19.70;;;;;21.40;100796.00;;;;4920125;29;20256;-75
2023/09/12 01:07:54;;;;;;;33.43;19.97;;;;;21.40;100831.00;;;;4918248;29;20272;-75
2023/09/12 01:10:46;;;;;;;33.83;20.03;;;;;21.40;100850.00;;;;4925027;29;20765;-74
2023/09/12 01:13:32;;;;;;;33.97;18.90;;;;;21.50;100857.00;;;;4915829;28;20263;-75
2023/09/12 01:16:19;;;;;;;45.53;21.37;;;;;21.40;100822.00;;;;4929433;29;20761;-71
2023/09/12 01:19:07;;;;;;;38.53;20.77;;;;;21.20;100775.00;;;;4918320;29;20374;-73
2023/09/12 01:22:24;;;;;;;42.43;21.90;;;;;21.20;100789.00;;;;4919632;29;20244;-72
2023/09/12 01:25:37;;;;;;;37.27;21.07;;;;;21.10;100764.00;;;;4921755;29;20236;-73
2023/09/12 01:28:26;;;;;;;35.10;19.47;;;;;21.10;100769.00;;;;4924962;29;20235;-74
2023/09/12 01:31:13;;;;;;;33.63;18.13;;;;;21.10;100770.00;;;;4924929;29;20720;-73
2023/09/12 01:34:09;;;;;;;31.03;19.33;;;;;21.00;100774.00;;;;4919240;29;20235;-73
2023/09/12 01:36:55;;;;;;;27.47;17.37;;;;;21.00;100763.00;;;;4922389;29;20357;-73
2023/09/12 01:39:42;;;;;;;34.67;17.27;;;;;20.90;100753.00;;;;4918869;29;20369;-74
2023/09/12 01:42:36;;;;;;;29.30;16.13;;;;;20.90;100760.00;;;;4932027;28;20321;-74
2023/09/12 01:45:24;;;;;;;28.87;16.90;;;;;20.80;100758.00;;;;4913839;29;20284;-74
2023/09/12 01:48:12;;;;;;;30.80;17.43;;;;;20.80;100756.00;;;;4921185;28;20241;-73
2023/09/12 01:50:59;;;;;;;27.97;17.07;;;;;20.80;100738.00;;;;4917812;29;20334;-72
2023/09/12 01:53:47;;;;;;;28.60;17.37;;;;;20.80;100718.00;;;;4922477;29;20291;-73
2023/09/12 01:56:33;;;;;;;30.33;17.10;;;;;20.80;100706.00;;;;4921235;29;20233;-72
2023/09/12 01:59:20;;;;;;;33.53;18.77;;;;;20.80;100705.00;;;;4931465;28;20244;-72
2023/09/12 02:02:08;;;;;;;29.73;17.17;;;;;20.90;100727.00;;;;4920422;29;20603;-75
2023/09/12 02:05:08;;;;;;;30.83;19.57;;;;;20.90;100741.00;;;;4920779;29;20373;-75
2023/09/12 02:07:55;;;;;;;29.53;18.60;;;;;20.90;100750.00;;;;4915107;29;20275;-72
2023/09/12 02:10:41;;;;;;;29.63;16.83;;;;;20.90;100832.00;;;;4915242;28;20293;-72
2023/09/12 02:13:27;;;;;;;30.53;16.83;;;;;20.90;100876.00;;;;4926223;29;20897;-72
2023/09/12 02:16:14;;;;;;;31.93;17.20;;;;;20.90;100815.00;;;;4919625;28;20615;-73
2023/09/12 02:19:02;;;;;;;29.37;16.63;;;;;20.90;100806.00;;;;4918033;29;20236;-71
2023/09/12 02:21:48;;;;;;;21.20;14.20;;;;;20.80;100789.00;;;;4911936;29;20268;-72
2023/09/12 02:24:35;;;;;;;27.30;16.73;;;;;20.70;100725.00;;;;4920441;29;20240;-72
2023/09/12 02:27:21;;;;;;;20.67;12.30;;;;;20.70;100730.00;;;;4925643;28;20331;-72
2023/09/12 02:30:09;;;;;;;21.30;12.77;;;;;20.70;100749.00;;;;4917447;29;20776;-73
2023/09/12 02:32:55;;;;;;;22.73;12.47;;;;;20.70;100745.00;;;;4920524;29;20654;-73
2023/09/12 02:35:43;;;;;;;18.90;12.83;;;;;20.70;100744.00;;;;4917923;29;20336;-73
2023/09/12 02:38:29;;;;;;;22.07;13.70;;;;;20.70;100734.00;;;;4913142;29;20236;-74
2023/09/12 02:41:15;;;;;;;19.47;11.70;;;;;20.60;100749.00;;;;4912441;29;20308;-73
2023/09/12 02:44:02;;;;;;;23.33;13.40;;;;;20.70;100757.00;;;;4923840;29;20236;-73
2023/09/12 02:46:49;;;;;;;21.10;13.63;;;;;20.70;100745.00;;;;4914829;29;20309;-74
2023/09/12 02:49:36;;;;;;;22.67;14.10;;;;;20.60;100767.00;;;;4920780;28;20257;-72
2023/09/12 02:52:23;;;;;;;20.63;13.77;;;;;20.70;100770.00;;;;4916071;29;20243;-71
2023/09/12 02:55:10;;;;;;;33.83;14.90;;;;;20.60;100757.00;;;;4916386;29;20231;-70
2023/09/12 02:57:57;;;;;;;35.23;13.50;;;;;20.50;100769.00;;;;4920490;29;20298;-72
2023/09/12 03:00:43;;;;;;;23.63;13.90;;;;;20.40;100749.00;;;;4923471;29;20239;-72
2023/09/12 03:03:29;;;;;;;24.17;14.30;;;;;20.50;100746.00;;;;4910028;29;20354;-72
2023/09/12 03:06:17;;;;;;;23.77;14.63;;;;;20.50;100762.00;;;;4921682;29;20233;-73
2023/09/12 03:09:06;;;;;;;21.00;13.37;;;;;20.50;100787.00;;;;4915805;29;20287;-73
2023/09/12 03:11:52;;;;;;;26.43;14.20;;;;;20.50;100796.00;;;;4918550;29;20360;-73
2023/09/12 03:14:39;;;;;;;21.40;14.57;;;;;20.50;100779.00;;;;4918778;29;20239;-73
2023/09/12 03:17:25;;;;;;;27.30;15.50;;;;;20.50;100790.00;;;;4922966;28;20243;-71
2023/09/12 03:20:12;;;;;;;32.07;17.03;;;;;20.40;100792.00;;;;4920445;29;20234;-72
2023/09/12 03:22:58;;;;;;;28.80;16.50;;;;;20.40;100785.00;;;;4925176;29;20365;-70
2023/09/12 03:25:46;;;;;;;26.30;16.47;;;;;20.40;100758.00;;;;4926776;29;20727;-72
2023/09/12 03:28:33;;;;;;;28.87;15.87;;;;;20.40;100701.00;;;;4916819;29;20255;-72
2023/09/12 03:31:20;;;;;;;25.33;15.60;;;;;20.40;100676.00;;;;4922998;29;20228;-71
2023/09/12 03:34:06;;;;;;;26.43;15.40;;;;;20.40;100687.00;;;;4909228;28;20242;-73
2023/09/12 03:36:52;;;;;;;27.93;15.90;;;;;20.40;100693.00;;;;4916868;28;20237;-70
2023/09/12 03:39:38;;;;;;;23.23;14.73;;;;;20.40;100691.00;;;;4917541;28;20277;-72
2023/09/12 03:42:26;;;;;;;20.27;13.53;;;;;20.30;100667.00;;;;4922801;29;20238;-73
2023/09/12 03:45:27;;;;;;;24.97;15.10;;;;;20.30;100684.00;;;;4916264;29;20235;-73
2023/09/12 03:48:13;;;;;;;21.70;13.93;;;;;20.40;100680.00;;;;4920515;28;20310;-73
2023/09/12 03:51:00;;;;;;;22.60;13.17;;;;;20.30;100687.00;;;;4923113;28;20232;-72
2023/09/12 03:53:49;;;;;;;22.63;13.13;;;;;20.30;100682.00;;;;4915156;29;20331;-72
2023/09/12 03:56:36;;;;;;;19.10;13.17;;;;;20.30;100684.00;;;;4924958;29;20697;-74
2023/09/12 03:59:23;;;;;;;19.87;13.03;;;;;20.30;100683.00;;;;4926349;29;20261;-74
2023/09/12 04:02:10;;;;;;;18.10;12.60;;;;;20.30;100691.00;;;;4924513;29;20610;-73
2023/09/12 04:04:59;;;;;;;22.47;14.20;;;;;20.30;100688.00;;;;4925612;29;20261;-72
2023/09/12 04:07:45;;;;;;;24.47;14.70;;;;;20.30;100686.00;;;;4910957;29;20267;-71
2023/09/12 04:10:33;;;;;;;25.30;15.50;;;;;20.30;100683.00;;;;4918631;29;20230;-72
2023/09/12 04:13:19;;;;;;;22.60;14.67;;;;;20.30;100679.00;;;;4910170;29;20234;-73
2023/09/12 04:16:07;;;;;;;23.77;15.40;;;;;20.20;100682.00;;;;4912746;29;20250;-73
2023/09/12 04:18:54;;;;;;;24.40;14.47;;;;;20.20;100677.00;;;;4917956;29;20267;-73
2023/09/12 04:21:40;;;;;;;23.33;15.20;;;;;20.10;100672.00;;;;4921706;29;20239;-73
2023/09/12 04:24:26;;;;;;;22.30;14.30;;;;;20.10;100678.00;;;;4928773;28;20236;-73
2023/09/12 04:27:13;;;;;;;20.43;14.63;;;;;20.00;100677.00;;;;4928288;29;20291;-73
2023/09/12 04:29:59;;;;;;;23.97;13.23;;;;;20.00;100683.00;;;;4912782;29;20234;-72
2023/09/12 04:32:47;;;;;;;23.57;14.47;;;;;19.90;100692.00;;;;4918729;29;20429;-73
2023/09/12 04:35:34;;;;;;;21.27;13.57;;;;;19.90;100687.00;;;;4901995;29;20611;-73
2023/09/12 04:38:20;;;;;;;17.73;12.90;;;;;19.80;100695.00;;;;4923140;28;20233;-73
2023/09/12 04:41:07;;;;;;;21.63;13.70;;;;;19.80;100702.00;;;;4918258;29;20234;-73
2023/09/12 04:43:53;;;;;;;24.27;14.77;;;;;19.80;100696.00;;;;4924857;28;20247;-72
2023/09/12 04:46:40;;;;;;;22.23;14.97;;;;;19.80;100699.00;;;;4925299;28;20235;-73
2023/09/12 04:49:30;;;;;;;24.23;14.70;;;;;19.80;100710.00;;;;4922506;28;20233;-73
2023/09/12 04:52:17;;;;;;;25.23;14.67;;;;;19.80;100709.00;;;;4924049;29;20821;-73
2023/09/12 04:55:03;;;;;;;23.77;15.40;;;;;19.80;100712.00;;;;4923420;29;20737;-73
2023/09/12 04:57:50;;;;;;;23.43;14.03;;;;;19.80;100715.00;;;;4926562;29;20743;-72
2023/09/12 05:00:36;;;;;;;22.03;14.13;;;;;19.70;100721.00;;;;4921619;29;20239;-72
2023/09/12 05:03:23;;;;;;;25.20;14.27;;;;;19.70;100726.00;;;;4926630;29;20234;-72
2023/09/12 05:06:15;;;;;;;22.07;14.07;;;;;19.70;100734.00;;;;4927570;29;20794;-72
2023/09/12 05:09:01;;;;;;;22.60;14.03;;;;;19.80;100745.00;;;;4919934;29;20238;-73
2023/09/12 05:11:47;;;;;;;25.40;15.57;;;;;19.80;100744.00;;;;4921438;29;20246;-72
2023/09/12 05:14:34;;;;;;;25.63;15.20;;;;;19.80;100738.00;;;;4904814;29;20237;-73
2023/09/12 05:17:20;;;;;;;26.63;15.77;;;;;19.80;100743.00;;;;4912359;29;20235;-73
2023/09/12 05:20:08;;;;;;;23.93;15.43;;;;;19.80;100740.00;;;;4910779;28;20264;-73
2023/09/12 05:22:55;;;;;;;24.13;15.23;;;;;19.90;100738.00;;;;4922505;29;20246;-73
2023/09/12 05:25:42;;;;;;;26.10;15.50;;;;;19.90;100728.00;;;;4914857;28;20303;-72
2023/09/12 05:28:28;;;;;;;27.53;15.83;;;;;19.90;100734.00;;;;4928290;29;20234;-73
2023/09/12 05:31:15;;;;;;;22.90;14.93;;;;;19.90;100732.00;;;;4919158;29;20283;-72
2023/09/12 05:34:01;;;;;;;23.17;14.57;;;;;19.90;100734.00;;;;4930149;29;20748;-72
2023/09/12 05:36:48;;;;;;;23.57;15.10;;;;;19.90;100719.00;;;;4924873;29;20238;-72
2023/09/12 05:39:35;;;;;;;23.93;14.87;;;;;20.00;100716.00;;;;4925294;29;20237;-72
2023/09/12 05:42:22;;;;;;;24.23;14.57;;;;;20.00;100714.00;;;;4923895;29;20229;-73
2023/09/12 05:45:09;;;;;;;24.83;14.77;;;;;20.00;100730.00;;;;4923525;28;24131;-72
2023/09/12 05:47:55;;;;;;;30.57;15.17;;;;;20.00;100742.00;;;;4916541;29;20631;-74
2023/09/12 05:50:42;;;;;;;23.87;15.60;;;;;20.00;100769.00;;;;4938652;28;20254;-74
2023/09/12 05:53:28;;;;;;;26.87;16.50;;;;;20.00;100790.00;;;;4923919;29;20274;-74
2023/09/12 05:56:16;;;;;;;27.00;16.17;;;;;20.00;100770.00;;;;4922051;29;20229;-73
2023/09/12 05:59:02;;;;;;;30.57;18.70;;;;;20.10;100749.00;;;;4924808;29;20313;-73
2023/09/12 06:01:49;;;;;;;31.83;19.00;;;;;20.00;100752.00;;;;4920504;29;20253;-73
2023/09/12 06:04:35;;;;;;;32.23;18.87;;;;;20.10;100754.00;;;;4923319;29;20242;-71
2023/09/12 06:07:22;;;;;;;32.33;17.67;;;;;20.00;100755.00;;;;4928420;29;20226;-71
2023/09/12 06:10:09;;;;;;;28.10;16.33;;;;;20.00;100788.00;;;;4929006;29;20654;-71
2023/09/12 06:12:57;;;;;;;34.40;17.03;;;;;20.00;100809.00;;;;4927173;28;20367;-71
2023/09/12 06:15:43;;;;;;;27.77;16.57;;;;;20.10;100823.00;;;;4923850;29;20246;-71
2023/09/12 06:18:31;;;;;;;30.80;19.20;;;;;20.10;100786.00;;;;4923968;29;20283;-71
2023/09/12 06:21:17;;;;;;;35.87;19.70;;;;;20.10;100787.00;;;;4917477;29;20363;-71
2023/09/12 06:24:11;;;;;;;31.63;18.77;;;;;20.10;100798.00;;;;4920524;29;20261;-68
2023/09/12 06:26:58;;;;;;;30.27;17.63;;;;;20.10;100804.00;;;;4923511;29;20686;-70
2023/09/12 06:29:45;;;;;;;27.07;16.63;;;;;20.10;100798.00;;;;4924538;28;20281;-71
2023/09/12 06:32:32;;;;;;;28.03;16.70;;;;;20.10;100785.00;;;;4922912;28;20779;-70
2023/09/12 06:35:18;;;;;;;30.77;18.20;;;;;20.10;100805.00;;;;4918397;28;20374;-72
2023/09/12 06:38:05;;;;;;;28.70;17.00;;;;;20.10;100793.00;;;;4924972;29;20254;-71
2023/09/12 06:40:51;;;;;;;26.73;16.40;;;;;20.10;100797.00;;;;4924598;29;20289;-76
2023/09/12 06:43:37;;;;;;;26.37;16.50;;;;;20.10;100802.00;;;;4923008;28;20303;-76
2023/09/12 06:46:25;;;;;;;31.07;19.17;;;;;20.10;100823.00;;;;4922582;29;20278;-74
2023/09/12 06:49:12;;;;;;;31.03;17.47;;;;;20.10;100879.00;;;;4924362;29;20629;-75
2023/09/12 06:51:58;;;;;;;33.40;18.40;;;;;20.10;100917.00;;;;4924142;29;20742;-74
2023/09/12 06:54:45;;;;;;;30.80;19.37;;;;;20.20;100938.00;;;;4921688;29;20382;-72
2023/09/12 06:57:31;;;;;;;37.67;20.83;;;;;20.20;100941.00;;;;4924902;29;20238;-72
2023/09/12 07:00:18;;;;;;;36.37;21.23;;;;;20.20;100874.00;;;;4920703;29;20229;-71
2023/09/12 07:03:06;;;;;;;36.57;22.03;;;;;20.10;100835.00;;;;4923462;29;20610;-70
2023/09/12 07:05:52;;;;;;;36.93;21.13;;;;;20.10;100798.00;;;;4920982;29;20347;-72
2023/09/12 07:08:39;;;;;;;35.03;20.67;;;;;20.10;100780.00;;;;4918990;29;20262;-73
2023/09/12 07:11:25;;;;;;;37.90;19.67;;;;;20.10;100762.00;;;;4925734;29;20234;-72
2023/09/12 07:14:11;;;;;;;35.90;20.40;;;;;20.10;100766.00;;;;4917564;29;20343;-71
2023/09/12 07:16:57;;;;;;;38.90;21.40;;;;;20.10;100776.00;;;;4922137;28;20249;-74
2023/09/12 07:19:45;;;;;;;35.70;20.20;;;;;20.10;100783.00;;;;4918676;29;20235;-73
2023/09/12 07:22:32;;;;;;;34.47;20.57;;;;;20.10;100774.00;;;;4921260;29;20249;-74
2023/09/12 07:25:19;;;;;;;43.87;21.53;;;;;20.10;100757.00;;;;4912387;29;20239;-72
2023/09/12 07:28:05;;;;;;;40.23;21.93;;;;;20.10;100773.00;;;;4921532;29;20254;-73
2023/09/12 07:30:51;;;;;;;36.20;20.70;;;;;20.10;100777.00;;;;4917094;29;20360;-73
2023/09/12 07:33:37;;;;;;;32.20;19.33;;;;;20.10;100780.00;;;;4922780;29;20288;-74
2023/09/12 07:36:25;;;;;;;36.87;20.83;;;;;20.10;100794.00;;;;4919563;29;20257;-73
2023/09/12 07:39:11;;;;;;;37.33;21.80;;;;;20.10;100808.00;;;;4919089;29;20236;-73
2023/09/12 07:41:58;;;;;;;42.23;22.53;;;;;20.10;100802.00;;;;4917857;29;20249;-73
2023/09/12 07:44:44;;;;;;;39.87;22.67;;;;;20.20;100805.00;;;;4922114;29;20242;-76
2023/09/12 07:47:30;;;;;;;36.43;22.40;;;;;20.10;100805.00;;;;4924793;29;20327;-76
2023/09/12 07:50:17;;;;;;;38.37;21.77;;;;;20.10;100788.00;;;;4928340;28;20231;-76
2023/09/12 07:53:04;;;;;;;37.70;20.90;;;;;20.10;100795.00;;;;4917710;29;20630;-75
2023/09/12 07:55:51;;;;;;;29.90;18.37;;;;;20.10;100802.00;;;;4920387;28;20311;-75
2023/09/12 07:58:37;;;;;;;30.27;18.73;;;;;20.10;100797.00;;;;4910542;29;20787;-76
2023/09/12 08:01:23;;;;;;;31.37;18.97;;;;;20.10;100789.00;;;;4927336;29;20246;-77
2023/09/12 08:04:10;;;;;;;34.50;18.73;;;;;20.10;100797.00;;;;4915621;29;20239;-73
2023/09/12 08:06:56;;;;;;;33.00;19.97;;;;;20.20;100784.00;;;;4920114;29;20250;-76
2023/09/12 08:09:54;;;;;;;35.77;21.00;;;;;20.20;100772.00;;;;4922199;28;20253;-75
2023/09/12 08:12:41;;;;;;;36.90;20.93;;;;;20.30;100769.00;;;;4921095;29;20234;-72
2023/09/12 08:15:27;;;;;;;38.37;21.83;;;;;20.40;100778.00;;;;4924624;29;20410;-73
2023/09/12 08:18:14;;;;;;;41.30;23.97;;;;;20.60;100777.00;;;;4923776;29;20239;-74
2023/09/12 08:21:00;;;;;;;42.97;23.43;;;;;20.70;100787.00;;;;4921189;29;20681;-76
2023/09/12 08:23:47;;;;;;;41.17;23.80;;;;;20.80;100797.00;;;;4917428;29;20286;-75
2023/09/12 08:26:34;;;;;;;41.00;22.40;;;;;20.70;100794.00;;;;4922126;29;20231;-75
2023/09/12 08:29:20;;;;;;;41.07;22.17;;;;;20.70;100791.00;;;;4922398;28;20250;-74
2023/09/12 08:32:07;;;;;;;36.13;21.67;;;;;20.70;100799.00;;;;4919036;29;20299;-72
2023/09/12 08:34:53;;;;;;;40.63;21.50;;;;;20.80;100789.00;;;;4915084;29;20645;-73
2023/09/12 08:37:40;;;;;;;34.97;20.83;;;;;20.80;100798.00;;;;4921312;29;20240;-74
2023/09/12 08:40:27;;;;;;;35.20;21.10;;;;;20.80;100803.00;;;;4924823;29;20252;-74
2023/09/12 08:43:15;;;;;;;39.97;22.10;;;;;20.70;100804.00;;;;4925644;29;21114;-73
2023/09/12 08:46:02;;;;;;;37.47;21.57;;;;;20.80;100806.00;;;;4918872;29;20932;-72
2023/09/12 08:48:50;;;;;;;32.90;20.43;;;;;20.80;100821.00;;;;4922764;29;20230;-72
2023/09/12 08:51:36;;;;;;;33.93;20.73;;;;;20.80;100828.00;;;;4920260;29;20685;-74
2023/09/12 08:54:23;;;;;;;29.93;18.73;;;;;20.80;100820.00;;;;4923121;29;20236;-74
2023/09/12 08:57:12;;;;;;;31.83;19.30;;;;;20.90;100835.00;;;;4922749;28;20887;-71
2023/09/12 09:00:03;;;;;;;25.43;17.30;;;;;20.80;100831.00;;;;4922555;29;20613;-74
2023/09/12 09:02:52;;;;;;;27.13;17.73;;;;;20.80;100830.00;;;;4925588;29;20245;-74
2023/09/12 09:05:42;;;;;;;24.93;16.27;;;;;20.80;100835.00;;;;4921475;28;20252;-74
2023/09/12 09:08:30;;;;;;;25.80;16.50;;;;;20.90;100832.00;;;;4920196;29;20255;-73
2023/09/12 09:11:16;;;;;;;23.80;15.30;;;;;21.00;100833.00;;;;4919608;28;20235;-74
2023/09/12 09:14:03;;;;;;;38.13;17.77;;;;;21.10;100830.00;;;;4926751;29;20315;-72
2023/09/12 09:16:51;;;;;;;27.97;16.93;;;;;21.10;100837.00;;;;4923842;29;20698;-72
2023/09/12 09:19:44;;;;;;;25.00;17.50;;;;;21.10;100832.00;;;;4926775;29;20283;-70
2023/09/12 09:22:31;;;;;;;26.87;17.20;;;;;21.20;100827.00;;;;4926379;29;20665;-73
2023/09/12 09:25:17;;;;;;;25.23;16.87;;;;;21.20;100821.00;;;;4927405;29;20236;-73
2023/09/12 09:28:05;;;;;;;26.50;17.17;;;;;21.40;100821.00;;;;4926047;29;20275;-72
2023/09/12 09:30:54;;;;;;;30.27;18.83;;;;;21.60;100820.00;;;;4929021;29;20319;-69
2023/09/12 09:33:45;;;;;;;28.97;19.73;;;;;22.00;100818.00;;;;4929280;29;20624;-73
2023/09/12 09:36:33;;;;;;;30.80;19.30;;;;;22.30;100833.00;;;;4927599;29;20236;-73
2023/09/12 09:39:21;;;;;;;24.13;17.53;;;;;22.30;100843.00;;;;4911530;28;20808;-69
2023/09/12 09:42:11;;;;;;;23.63;16.87;;;;;22.60;100848.00;;;;4922052;29;20350;-72
2023/09/12 09:44:58;;;;;;;20.93;15.87;;;;;22.60;100844.00;;;;4923665;29;20229;-73
2023/09/12 09:47:44;;;;;;;21.47;14.80;;;;;22.70;100852.00;;;;4922344;29;20240;-73
2023/09/12 09:50:34;;;;;;;18.50;13.90;;;;;22.60;100848.00;;;;4925632;28;20232;-73
2023/09/12 09:53:26;;;;;;;19.00;13.87;;;;;22.90;100850.00;;;;4925490;28;20233;-72
2023/09/12 09:56:14;;;;;;;19.67;13.40;;;;;23.20;100862.00;;;;4923039;29;20357;-73
2023/09/12 09:59:01;;;;;;;18.77;13.57;;;;;23.20;100866.00;;;;4922264;29;20236;-73
2023/09/12 10:01:50;;;;;;;16.07;12.80;;;;;23.20;100866.00;;;;4921935;29;20248;-75
2023/09/12 10:04:37;;;;;;;17.33;12.57;;;;;23.20;100863.00;;;;4922691;29;20284;-74
2023/09/12 10:07:29;;;;;;;16.50;12.40;;;;;23.10;100853.00;;;;4915770;29;20233;-73
2023/09/12 10:10:17;;;;;;;17.17;12.10;;;;;22.90;100860.00;;;;4922451;29;20240;-75
2023/09/12 10:13:04;;;;;;;17.30;12.27;;;;;22.80;100866.00;;;;4925545;28;20261;-73
2023/09/12 10:15:52;;;;;;;15.03;12.40;;;;;22.80;100873.00;;;;4922895;28;20727;-73
2023/09/12 10:18:47;;;;;;;15.63;11.93;;;;;22.80;100874.00;;;;4925313;29;20742;-76
2023/09/12 10:21:35;;;;;;;18.20;11.77;;;;;22.70;100871.00;;;;4921582;28;20237;-74
2023/09/12 10:24:23;;;;;;;13.00;11.00;;;;;22.70;100872.00;;;;4924969;29;20309;-73
2023/09/12 10:27:12;;;;;;;13.00;10.63;;;;;22.60;100859.00;;;;4920574;29;20241;-71
2023/09/12 10:29:59;;;;;;;15.60;10.47;;;;;22.80;100866.00;;;;4911865;29;20252;-74
2023/09/12 10:32:47;;;;;;;12.57;10.00;;;;;22.90;100862.00;;;;4916198;28;20233;-73
2023/09/12 10:35:33;;;;;;;12.20;9.60;;;;;23.10;100861.00;;;;4917998;29;20359;-72
2023/09/12 10:38:23;;;;;;;12.33;9.33;;;;;23.20;100860.00;;;;4920096;29;20230;-71
2023/09/12 10:41:13;;;;;;;12.13;9.60;;;;;23.10;100850.00;;;;4912283;28;20233;-72
2023/09/12 10:44:02;;;;;;;15.27;10.10;;;;;23.20;100859.00;;;;4919432;28;20233;-73
2023/09/12 10:46:48;;;;;;;12.20;9.73;;;;;23.30;100853.00;;;;4915755;28;20225;-75
2023/09/12 10:49:35;;;;;;;13.93;10.73;;;;;23.40;100847.00;;;;4923843;28;20280;-72
2023/09/12 10:52:26;;;;;;;11.47;9.53;;;;;23.50;100844.00;;;;4917234;29;20244;-72
2023/09/12 10:55:18;;;;;;;12.97;10.57;;;;;23.50;100844.00;;;;4920192;29;20277;-72
2023/09/12 10:58:08;;;;;;;12.47;9.43;;;;;23.40;100851.00;;;;4917370;29;20294;-71
2023/09/12 11:01:25;;;;;;;12.60;10.00;;;;;23.50;100845.00;;;;4917885;29;20713;-71
2023/09/12 11:04:33;;;;;;;12.33;9.93;;;;;23.60;100852.00;;;;4917207;29;20743;-71
2023/09/12 11:07:34;;;;;;;13.23;9.90;;;;;23.70;100851.00;;;;4924511;29;20350;-71
2023/09/12 11:10:22;;;;;;;11.73;9.57;;;;;23.90;100861.00;;;;4922763;29;20276;-67
2023/09/12 11:13:18;;;;;;;13.07;9.33;;;;;23.80;100859.00;;;;4917467;29;20687;-70
2023/09/12 11:16:11;;;;;;;9.87;8.80;;;;;23.70;100847.00;;;;4914846;29;20277;-74
2023/09/12 11:19:15;;;;;;;11.73;9.40;;;;;23.70;100846.00;;;;4913564;29;20820;-73
2023/09/12 11:22:03;;;;;;;10.87;9.00;;;;;23.60;100835.00;;;;4916978;28;20374;-72
2023/09/12 11:24:49;;;;;;;10.03;8.40;;;;;23.60;100849.00;;;;4920207;29;20345;-74
2023/09/12 11:27:47;;;;;;;12.27;8.97;;;;;23.70;100835.00;;;;4917517;29;20240;-73
2023/09/12 11:30:34;;;;;;;9.90;8.50;;;;;23.70;100837.00;;;;4916997;29;20710;-73
2023/09/12 11:33:21;;;;;;;12.80;9.27;;;;;23.80;100832.00;;;;4912635;29;20241;-74
2023/09/12 11:36:14;;;;;;;11.60;8.60;;;;;23.90;100836.00;;;;4922716;28;20838;-74
2023/09/12 11:39:03;;;;;;;10.40;9.23;;;;;23.90;100834.00;;;;4924283;29;20875;-74
2023/09/12 11:41:50;;;;;;;13.83;9.20;;;;;24.00;100838.00;;;;4914987;29;20233;-74
2023/09/12 11:44:36;;;;;;;13.47;10.23;;;;;24.00;100837.00;;;;4917238;29;20280;-74
2023/09/12 11:47:24;;;;;;;14.43;11.17;;;;;24.00;100832.00;;;;4913707;29;20246;-73
2023/09/12 11:50:27;;;;;;;14.73;11.70;;;;;23.90;100833.00;;;;4925624;28;20254;-74
2023/09/12 11:53:13;;;;;;;16.00;12.47;;;;;23.80;100831.00;;;;4917055;29;20316;-73
2023/09/12 11:56:00;;;;;;;16.83;11.97;;;;;23.70;100837.00;;;;4919775;29;20229;-72
2023/09/12 11:58:47;;;;;;;14.20;10.80;;;;;23.80;100836.00;;;;4915372;29;20233;-71
2023/09/12 12:01:33;;;;;;;13.60;9.97;;;;;23.90;100829.00;;;;4926168;29;20244;-72
2023/09/12 12:04:23;;;;;;;13.33;9.13;;;;;24.10;100824.00;;;;4916083;29;20354;-70
2023/09/12 12:07:11;;;;;;;9.77;8.77;;;;;24.20;100825.00;;;;4925979;28;20777;-75
2023/09/12 12:09:57;;;;;;;10.97;8.27;;;;;24.40;100825.00;;;;4924868;29;20225;-72
2023/09/12 12:12:44;;;;;;;9.40;7.77;;;;;24.40;100815.00;;;;4920113;29;20795;-75
2023/09/12 12:15:32;;;;;;;10.90;8.77;;;;;24.60;100813.00;;;;4920192;29;20602;-73
2023/09/12 12:18:18;;;;;;;10.13;8.53;;;;;24.70;100817.00;;;;4919808;28;20384;-74
2023/09/12 12:21:06;;;;;;;9.93;8.50;;;;;24.80;100810.00;;;;4906866;29;20240;-72
2023/09/12 12:24:00;;;;;;;11.33;8.03;;;;;24.90;100807.00;;;;4916232;29;20233;-74
2023/09/12 12:26:46;;;;;;;10.53;8.23;;;;;25.00;100802.00;;;;4919315;29;20233;-74
2023/09/12 12:29:34;;;;;;;9.90;7.73;;;;;24.90;100803.00;;;;4923258;29;20275;-73
2023/09/12 12:32:20;;;;;;;9.37;7.90;;;;;24.90;100801.00;;;;4923951;29;20233;-70
2023/09/12 12:35:08;;;;;;;9.73;8.02;;;;;25.00;100811.00;;;;4919669;29;20763;-72
2023/09/12 12:38:15;;;;;;;10.63;8.00;;;;;25.10;100810.00;;;;4925819;28;20629;-74
2023/09/12 12:41:02;;;;;;;10.40;8.63;;;;;25.30;100806.00;;;;4916521;29;20228;-72
2023/09/12 12:43:51;;;;;;;12.40;9.25;;;;;25.50;100797.00;;;;4927942;29;20373;-69
2023/09/12 12:46:49;;;;;;;11.27;9.50;;;;;25.50;100792.00;;;;4924557;29;20236;-72
2023/09/12 12:49:38;;;;;;;10.52;8.65;;;;;25.60;100797.00;;;;4926868;29;20239;-71
2023/09/12 12:52:25;;;;;;;12.70;9.48;;;;;25.80;100799.00;;;;4930385;29;20253;-71
2023/09/12 12:55:14;;;;;;;10.63;8.43;;;;;25.90;100798.00;;;;4914364;29;20609;-73
2023/09/12 12:58:00;;;;;;;10.85;8.73;;;;;25.80;100794.00;;;;4920044;29;20240;-72
2023/09/12 13:00:46;;;;;;;10.77;7.97;;;;;25.90;100799.00;;;;4921621;28;20368;-74
2023/09/12 13:03:32;;;;;;;10.63;8.25;;;;;26.10;100793.00;;;;4922178;29;20264;-72
2023/09/12 13:06:19;;;;;;;13.00;9.02;;;;;26.30;100797.00;;;;4925786;29;20285;-74
2023/09/12 13:09:08;;;;;;;11.50;8.35;;;;;26.40;100797.00;;;;4927651;29;20233;-73
2023/09/12 13:11:56;;;;;;;11.93;10.45;;;;;26.80;100798.00;;;;4930591;28;20312;-74
2023/09/12 13:14:42;;;;;;;10.90;8.82;;;;;26.80;100801.00;;;;4919012;29;20608;-73
2023/09/12 13:17:28;;;;;;;10.82;9.63;;;;;26.50;100791.00;;;;4927321;29;20305;-74
2023/09/12 13:20:14;;;;;;;12.65;9.30;;;;;26.10;100774.00;;;;4927266;29;20282;-72
2023/09/12 13:23:01;;;;;;;10.48;8.40;;;;;25.90;100779.00;;;;4922648;29;20233;-71
2023/09/12 13:25:47;;;;;;;10.63;8.95;;;;;25.80;100778.00;;;;4931865;29;20245;-72
2023/09/12 13:28:35;;;;;;;10.63;8.32;;;;;25.60;100759.00;;;;4924696;29;20229;-75
2023/09/12 13:31:21;;;;;;;10.13;8.90;;;;;25.70;100770.00;;;;4928460;29;20237;-75